Time;durP1;ratioP1;P1;durP2;ratioP2;P2;SDS_P1;SDS_P2;PMS_P1;PMS_P2;Temp;Humidity;BMP_temperature;BMP_pressure;BME280_temperature;BME280_humidity;BME280_pressure;Samples;Min_cycle;Max_cycle;Signal;HPM_P1;HPM_P2
2023/07/24 02:39:31;;;;;;;4.97;3.67;;;;;;;21.28;100.00;100010.25;5070012;28;20077;-62
2023/07/24 02:42:03;;;;;;;5.77;3.93;;;;;;;20.97;100.00;99984.81;5064219;28;20480;-61
2023/07/24 02:44:36;;;;;;;5.10;3.60;;;;;;;21.09;100.00;100016.75;5073271;28;20048;-64
2023/07/24 02:47:07;;;;;;;4.93;3.53;;;;;;;21.06;100.00;100011.63;5063109;28;20055;-63
2023/07/24 02:49:40;;;;;;;6.90;4.33;;;;;;;20.86;100.00;100004.06;5074496;28;20419;-63
2023/07/24 02:52:13;;;;;;;5.83;3.73;;;;;;;20.84;100.00;99996.22;5064268;28;20055;-63
2023/07/24 02:54:48;;;;;;;5.37;3.50;;;;;;;20.86;100.00;99998.75;5063255;28;20293;-62
2023/07/24 02:57:19;;;;;;;3.53;2.80;;;;;;;20.85;100.00;99994.41;5074012;28;20285;-62
2023/07/24 02:59:51;;;;;;;5.13;3.23;;;;;;;20.82;100.00;99992.81;5062623;28;20293;-59
2023/07/24 03:02:23;;;;;;;4.70;3.00;;;;;;;20.81;100.00;99995.53;5071877;28;20285;-59
2023/07/24 03:04:55;;;;;;;3.60;2.57;;;;;;;20.62;100.00;99975.47;5062688;28;20830;-63
2023/07/24 03:07:28;;;;;;;3.43;2.60;;;;;;;20.70;100.00;99998.03;5072898;28;20289;-62
2023/07/24 03:10:01;;;;;;;3.13;2.20;;;;;;;20.67;100.00;99999.94;5063006;28;20278;-63
2023/07/24 03:12:34;;;;;;;3.37;2.20;;;;;;;20.66;100.00;99998.22;5073779;28;20292;-61
2023/07/24 03:15:09;;;;;;;4.27;2.70;;;;;;;20.72;100.00;100001.41;5062560;28;20347;-58
2023/07/24 03:17:40;;;;;;;4.57;3.10;;;;;;;20.73;100.00;100003.16;5072327;28;20293;-61
2023/07/24 03:20:15;;;;;;;4.07;2.53;;;;;;;20.74;100.00;99999.53;5061469;28;20284;-63
2023/07/24 03:22:50;;;;;;;4.83;2.83;;;;;;;20.60;100.00;99961.44;5061528;28;20716;-60
2023/07/24 03:25:24;;;;;;;4.20;2.67;;;;;;;20.52;100.00;99963.69;5072830;28;21168;-62
2023/07/24 03:27:56;;;;;;;4.00;2.70;;;;;;;20.78;100.00;99995.75;5062669;28;20282;-63
2023/07/24 03:30:27;;;;;;;4.23;2.60;;;;;;;20.78;100.00;100001.91;5072345;28;20286;-61
2023/07/24 03:33:00;;;;;;;5.77;2.50;;;;;;;20.82;100.00;99986.66;5062054;28;20617;-62
2023/07/24 03:35:32;;;;;;;5.37;2.40;;;;;;;20.67;100.00;99968.06;5072828;28;20391;-59
2023/07/24 03:38:04;;;;;;;4.00;2.90;;;;;;;20.77;100.00;99959.53;5060310;28;20931;-58
2023/07/24 03:40:38;;;;;;;4.17;2.37;;;;;;;20.90;100.00;99971.06;5072913;28;20284;-61
2023/07/24 03:43:09;;;;;;;2.53;2.00;;;;;;;20.81;100.00;99937.13;5061965;28;20318;-62
2023/07/24 03:45:42;;;;;;;4.93;2.93;;;;;;;21.05;100.00;99956.78;5072589;28;20294;-63
2023/07/24 03:48:13;;;;;;;4.53;2.60;;;;;;;21.09;100.00;99968.94;5061530;28;20294;-59
2023/07/24 03:50:45;;;;;;;5.73;3.13;;;;;;;21.05;100.00;99970.09;5062308;28;20774;-62
2023/07/24 03:53:17;;;;;;;4.47;2.83;;;;;;;20.96;100.00;99956.53;5072505;28;20735;-61
2023/07/24 03:55:54;;;;;;;4.60;2.90;;;;;;;20.85;100.00;99949.28;5061755;28;20573;-62
2023/07/24 03:58:26;;;;;;;4.13;2.57;;;;;;;20.94;100.00;99959.28;5055498;28;20621;-62
2023/07/24 04:01:02;;;;;;;5.70;3.30;;;;;;;20.99;100.00;99967.84;5060694;28;20343;-62
2023/07/24 04:03:34;;;;;;;4.17;2.63;;;;;;;20.95;100.00;99966.31;5071896;28;20274;-61
2023/07/24 04:06:06;;;;;;;4.37;2.63;;;;;;;20.97;100.00;99963.56;5061874;28;20334;-63
2023/07/24 04:08:37;;;;;;;6.00;3.10;;;;;;;20.94;100.00;99956.63;5070739;28;20285;-61
2023/07/24 04:11:11;;;;;;;5.33;2.90;;;;;;;21.01;100.00;99955.28;5059939;28;20763;-59
2023/07/24 04:13:43;;;;;;;4.50;3.03;;;;;;;21.09;100.00;99949.47;5067608;28;20285;-61
2023/07/24 04:16:16;;;;;;;4.90;2.80;;;;;;;21.06;100.00;99947.03;5071332;28;20300;-62
2023/07/24 04:18:47;;;;;;;3.50;2.57;;;;;;;21.05;100.00;99945.31;5059332;28;20288;-63
2023/07/24 04:21:19;;;;;;;4.13;2.87;;;;;;;21.01;100.00;99944.66;5071498;28;20282;-63
2023/07/24 04:23:51;;;;;;;3.67;2.73;;;;;;;21.00;100.00;99948.28;5061957;28;20309;-58
2023/07/24 04:26:25;;;;;;;3.63;2.70;;;;;;;20.96;100.00;99951.22;5071576;28;20604;-60
2023/07/24 04:29:02;;;;;;;6.13;2.83;;;;;;;20.93;100.00;99936.34;5059334;28;20376;-58
2023/07/24 04:31:34;;;;;;;4.10;2.60;;;;;;;20.94;100.00;99932.72;5071398;28;20753;-61
2023/07/24 04:34:05;;;;;;;10.57;3.40;;;;;;;20.96;100.00;99936.13;5062101;28;20404;-59
2023/07/24 04:36:37;;;;;;;5.93;3.30;;;;;;;21.04;100.00;99943.59;5071789;28;20286;-61
2023/07/24 04:39:09;;;;;;;4.00;2.83;;;;;;;21.10;100.00;99933.44;5060422;28;20274;-62
2023/07/24 04:41:42;;;;;;;5.13;3.57;;;;;;;21.13;100.00;99939.50;5071262;28;20636;-63
2023/07/24 04:44:14;;;;;;;5.93;2.37;;;;;;;21.21;100.00;99937.19;5060361;28;20612;-61
2023/07/24 04:46:46;;;;;;;3.80;2.47;;;;;;;21.26;100.00;99933.28;5060134;28;20282;-60
2023/07/24 04:49:18;;;;;;;6.40;2.70;;;;;;;21.36;100.00;99922.88;5070351;28;20642;-60
2023/07/24 04:51:51;;;;;;;4.00;2.73;;;;;;;21.39;100.00;99930.72;5060623;28;20285;-59
2023/07/24 04:54:23;;;;;;;3.30;2.70;;;;;;;21.41;100.00;99931.44;5071598;28;20279;-60
2023/07/24 04:56:56;;;;;;;4.07;2.70;;;;;;;21.49;100.00;99934.47;5060271;28;20070;-62
2023/07/24 04:59:31;;;;;;;6.23;2.93;;;;;;;21.58;100.00;99929.47;5070753;28;20293;-60
2023/07/24 05:02:02;;;;;;;3.50;2.40;;;;;;;21.60;100.00;99919.59;5059881;28;20276;-62
2023/07/24 05:04:35;;;;;;;4.37;2.50;;;;;;;21.60;100.00;99914.28;5069215;28;20281;-58
2023/07/24 05:07:08;;;;;;;4.37;2.60;;;;;;;21.67;100.00;99916.41;5057992;28;20487;-59
2023/07/24 05:09:40;;;;;;;3.47;2.23;;;;;;;21.75;100.00;99913.22;5071607;28;20278;-60
2023/07/24 05:12:13;;;;;;;7.70;2.37;;;;;;;21.69;100.00;99892.34;5059843;28;20342;-62
2023/07/24 05:14:47;;;;;;;4.37;2.60;;;;;;;21.99;100.00;99910.69;5058766;28;20376;-60
2023/07/24 05:17:18;;;;;;;4.80;2.60;;;;;;;21.97;100.00;99897.47;5072281;28;20221;-61
2023/07/24 05:19:50;;;;;;;5.73;2.60;;;;;;;22.07;100.00;99912.81;5059387;28;20297;-61
2023/07/24 05:22:22;;;;;;;4.83;2.67;;;;;;;22.05;99.87;99898.75;5069455;28;20150;-59
2023/07/24 05:24:54;;;;;;;5.13;2.90;;;;;;;22.05;99.89;99899.59;5059172;28;20080;-61
2023/07/24 05:27:29;;;;;;;4.20;2.40;;;;;;;22.12;99.68;99902.69;5069889;28;20055;-61
2023/07/24 05:30:01;;;;;;;5.13;2.13;;;;;;;22.16;100.00;99913.00;5060906;28;20355;-61
2023/07/24 05:32:33;;;;;;;4.27;2.70;;;;;;;22.16;99.97;99906.84;5070667;28;20138;-61
2023/07/24 05:35:05;;;;;;;5.40;2.50;;;;;;;22.26;99.13;99915.91;5059340;28;20060;-62
2023/07/24 05:37:37;;;;;;;5.23;2.30;;;;;;;22.19;98.72;99911.97;5069821;28;20298;-59
2023/07/24 05:40:12;;;;;;;4.60;2.43;;;;;;;22.11;98.72;99922.25;5059704;28;20147;-61
2023/07/24 05:42:46;;;;;;;3.47;2.57;;;;;;;22.02;99.18;99914.94;5059501;28;20382;-58
2023/07/24 05:45:18;;;;;;;5.43;2.70;;;;;;;21.98;100.00;99912.47;5071482;28;20493;-61
2023/07/24 05:47:50;;;;;;;6.30;2.90;;;;;;;21.96;100.00;99901.09;5059085;28;20204;-61
2023/07/24 05:50:22;;;;;;;4.47;2.80;;;;;;;21.65;100.00;99840.38;5071049;28;20054;-61
2023/07/24 05:52:54;;;;;;;6.97;2.80;;;;;;;22.08;100.00;99895.88;5059615;28;20097;-60
2023/07/24 05:55:25;;;;;;;5.77;2.33;;;;;;;22.24;100.00;99903.66;5070130;28;20834;-59
2023/07/24 06:18:46;;;;;;;6.23;2.13;;;;;;;22.10;99.89;99896.63;5064004;28;20032;-60
2023/07/24 06:21:22;;;;;;;5.17;2.70;;;;;;;22.03;99.60;99900.69;5073122;28;20100;-57
2023/07/24 06:23:54;;;;;;;3.60;2.60;;;;;;;21.96;100.00;99903.75;5064170;28;20052;-61
2023/07/24 06:26:26;;;;;;;4.30;2.63;;;;;;;21.91;100.00;99887.25;5073693;28;20093;-62
2023/07/24 06:28:58;;;;;;;4.50;2.80;;;;;;;21.91;100.00;99892.56;5064477;28;20040;-62
2023/07/24 06:31:31;;;;;;;5.33;2.60;;;;;;;21.91;100.00;99887.25;5074271;28;20052;-61
2023/07/24 06:34:05;;;;;;;3.27;2.63;;;;;;;21.86;100.00;99881.41;5062369;28;20577;-61
2023/07/24 06:36:36;;;;;;;6.70;2.90;;;;;;;21.81;100.00;99880.88;5074711;28;20044;-62
2023/07/24 06:39:08;;;;;;;3.17;2.83;;;;;;;21.74;100.00;99874.28;5062406;28;20052;-60
2023/07/24 06:41:48;;;;;;;4.03;2.20;;;;;;;21.67;100.00;99875.69;5073377;28;20660;-61
2023/07/24 06:44:22;;;;;;;3.07;2.57;;;;;;;21.61;100.00;99868.09;5062664;28;20105;-63
2023/07/24 06:46:54;;;;;;;6.80;2.73;;;;;;;21.57;100.00;99874.56;5061334;28;20051;-61
2023/07/24 06:49:27;;;;;;;4.33;2.67;;;;;;;21.54;100.00;99871.19;5073556;28;20147;-62
2023/07/24 06:51:59;;;;;;;6.37;3.07;;;;;;;21.43;100.00;99863.09;5061408;28;20063;-61
2023/07/24 06:54:31;;;;;;;4.87;2.80;;;;;;;21.41;100.00;99872.97;5072815;28;20043;-60
2023/07/24 06:57:03;;;;;;;4.17;2.70;;;;;;;21.34;100.00;99876.97;5063034;28;20723;-61
2023/07/24 06:59:35;;;;;;;6.70;3.00;;;;;;;21.32;100.00;99881.53;5074740;28;20748;-61
2023/07/24 07:02:07;;;;;;;5.73;3.53;;;;;;;21.24;100.00;99881.19;5060968;28;20058;-62
2023/07/24 07:04:41;;;;;;;6.03;3.17;;;;;;;21.11;100.00;99876.69;5073151;28;20057;-62
2023/07/24 07:07:14;;;;;;;4.23;3.43;;;;;;;21.04;100.00;99877.19;5063487;28;20294;-60
2023/07/24 07:09:46;;;;;;;7.60;3.40;;;;;;;20.94;100.00;99878.75;5062661;28;20278;-59
2023/07/24 07:12:17;;;;;;;4.80;3.80;;;;;;;20.89;100.00;99879.06;5072398;28;20374;-59
2023/07/24 07:14:51;;;;;;;7.30;3.70;;;;;;;20.86;100.00;99881.91;5062777;28;20286;-62
2023/07/24 07:17:23;;;;;;;5.43;3.60;;;;;;;20.82;100.00;99877.78;5073159;28;20789;-61
2023/07/24 07:19:57;;;;;;;5.07;3.90;;;;;;;20.78;100.00;99884.22;5063457;28;20919;-62
2023/07/24 07:22:29;;;;;;;6.40;4.00;;;;;;;20.73;100.00;99881.88;5073142;28;20289;-62
2023/07/24 07:25:01;;;;;;;5.00;4.00;;;;;;;20.70;100.00;99887.38;5061474;28;20349;-60
2023/07/24 07:27:33;;;;;;;6.90;3.97;;;;;;;20.67;100.00;99888.44;5074939;28;21049;-61
2023/07/24 07:30:06;;;;;;;6.50;4.40;;;;;;;20.68;100.00;99876.84;5062399;28;20286;-60
2023/07/24 07:32:39;;;;;;;7.27;3.97;;;;;;;20.61;100.00;99867.56;5074014;28;20751;-60
2023/07/24 07:35:13;;;;;;;7.97;4.20;;;;;;;20.61;100.00;99870.22;5062095;28;20376;-61
2023/07/24 07:37:46;;;;;;;6.83;4.40;;;;;;;20.58;100.00;99859.81;5063073;28;20381;-61
2023/07/24 07:40:17;;;;;;;7.63;4.57;;;;;;;20.59;100.00;99864.19;5073146;28;20289;-61
2023/07/24 07:42:49;;;;;;;6.33;4.33;;;;;;;20.58;100.00;99877.53;5061821;28;20388;-61
2023/07/24 07:45:21;;;;;;;9.30;4.90;;;;;;;20.33;100.00;99835.78;5071102;28;20297;-60
2023/07/24 07:47:53;;;;;;;6.13;4.30;;;;;;;20.53;100.00;99880.47;5061797;28;20269;-61
2023/07/24 07:50:26;;;;;;;6.83;5.03;;;;;;;20.51;100.00;99871.72;5072022;28;20286;-61
2023/07/24 07:52:59;;;;;;;6.00;4.73;;;;;;;20.48;100.00;99871.94;5062291;28;20284;-61
2023/07/24 07:55:30;;;;;;;8.30;5.23;;;;;;;20.47;100.00;99870.25;5072104;28;20615;-61
2023/07/24 07:58:02;;;;;;;8.07;5.07;;;;;;;20.47;100.00;99871.09;5061403;28;22971;-60
2023/07/24 08:00:35;;;;;;;8.10;5.77;;;;;;;20.50;100.00;99875.34;5072100;28;20295;-61
2023/07/24 08:03:07;;;;;;;9.93;5.60;;;;;;;20.50;100.00;99874.50;5061831;28;20278;-61
2023/07/24 08:05:41;;;;;;;9.37;5.10;;;;;;;20.52;100.00;99878.75;5071734;28;20285;-60
2023/07/24 08:08:16;;;;;;;9.10;5.27;;;;;;;20.51;100.00;99877.03;5062054;28;20728;-60
2023/07/24 08:10:48;;;;;;;7.10;5.47;;;;;;;20.52;100.00;99884.06;5061719;28;20290;-66
2023/07/24 08:13:21;;;;;;;8.80;5.93;;;;;;;20.50;100.00;99875.34;5071189;28;20309;-61
2023/07/24 08:15:59;;;;;;;6.80;5.37;;;;;;;20.48;100.00;99871.94;5059994;28;20300;-66
2023/07/24 08:18:34;;;;;;;7.30;5.10;;;;;;;20.44;100.00;99875.72;5070852;28;20282;-60
2023/07/24 08:21:09;;;;;;;7.17;4.40;;;;;;;20.43;100.00;99884.66;5060039;28;20402;-59
2023/07/24 08:23:40;;;;;;;6.67;4.77;;;;;;;20.40;100.00;99875.09;5070266;28;20285;-60
2023/07/24 08:26:12;;;;;;;6.90;4.93;;;;;;;20.38;100.00;99865.50;5061567;28;20274;-60
2023/07/24 08:28:44;;;;;;;6.73;4.90;;;;;;;20.35;100.00;99877.19;5063847;28;20314;-59
2023/07/24 08:31:16;;;;;;;8.80;5.90;;;;;;;20.35;100.00;99871.03;5070498;28;21741;-59
2023/07/24 08:33:48;;;;;;;7.20;5.43;;;;;;;19.95;100.00;99815.16;5062958;28;20362;-60
2023/07/24 08:36:22;;;;;;;9.53;5.90;;;;;;;20.34;100.00;99890.53;5071969;28;20335;-60
2023/07/24 08:38:54;;;;;;;8.80;5.83;;;;;;;20.19;100.00;99868.47;5060159;28;20278;-60
2023/07/24 08:41:25;;;;;;;7.23;5.43;;;;;;;20.35;100.00;99892.25;5070976;28;20261;-61
2023/07/24 08:43:57;;;;;;;7.80;5.77;;;;;;;20.36;100.00;99889.47;5060664;28;20297;-61
2023/07/24 08:46:31;;;;;;;8.70;7.13;;;;;;;20.32;100.00;99881.81;5071415;28;20733;-59
2023/07/24 08:49:04;;;;;;;9.53;6.97;;;;;;;20.34;100.00;99890.53;5059310;28;20271;-59
2023/07/24 08:51:41;;;;;;;9.40;7.00;;;;;;;20.33;100.00;99896.78;5071070;28;20294;-62
2023/07/24 08:54:15;;;;;;;10.53;8.80;;;;;;;20.12;100.00;99860.06;5060523;28;20828;-58
2023/07/24 08:56:50;;;;;;;10.73;8.47;;;;;;;20.28;100.00;99891.78;5059681;28;20647;-61
2023/07/24 08:59:22;;;;;;;11.40;8.37;;;;;;;20.24;100.00;99891.13;5070761;28;20285;-58
2023/07/24 09:01:57;;;;;;;12.63;8.70;;;;;;;20.23;100.00;99889.41;5059029;28;20331;-58
2023/07/24 09:04:30;;;;;;;12.87;7.50;;;;;;;20.23;100.00;99884.09;5070295;28;20282;-59
2023/07/24 09:07:05;;;;;;;8.90;7.90;;;;;;;20.23;100.00;99884.09;5060616;28;20304;-61
2023/07/24 09:09:37;;;;;;;10.80;7.53;;;;;;;20.19;100.00;99893.22;5070955;28;20301;-61
2023/07/24 09:12:09;;;;;;;9.83;7.40;;;;;;;20.18;100.00;99886.19;5059739;28;20759;-61
2023/07/24 09:14:41;;;;;;;10.60;9.17;;;;;;;20.19;100.00;99882.59;5069826;28;20282;-59
2023/07/24 09:17:14;;;;;;;11.13;9.10;;;;;;;20.20;100.00;99878.13;5060208;28;20297;-59
2023/07/24 09:19:45;;;;;;;13.30;9.00;;;;;;;20.21;100.00;99875.38;5060854;28;20274;-62
2023/07/24 09:22:20;;;;;;;13.70;10.93;;;;;;;20.17;100.00;99873.88;5068952;28;20667;-57
2023/07/24 09:24:53;;;;;;;14.33;10.40;;;;;;;20.16;100.00;99876.63;5060439;28;20714;-61
2023/07/24 09:27:29;;;;;;;14.37;10.93;;;;;;;20.07;100.00;99862.16;5068469;28;20286;-58
2023/07/24 09:30:03;;;;;;;14.10;10.43;;;;;;;20.13;100.00;99877.66;5058800;28;20863;-59
2023/07/24 09:32:35;;;;;;;17.63;12.23;;;;;;;20.11;100.00;99874.25;5069167;28;20039;-62
2023/07/24 09:35:17;;;;;;;15.57;11.53;;;;;;;20.08;100.00;99874.44;5059543;28;20298;-61
2023/07/24 09:37:52;;;;;;;15.50;11.40;;;;;;;20.12;100.00;99875.97;5059461;28;20852;-62
2023/07/24 09:40:24;;;;;;;17.00;10.27;;;;;;;20.10;100.00;99869.91;5070952;28;20647;-60
2023/07/24 09:42:56;;;;;;;15.67;11.00;;;;;;;20.10;100.00;99869.91;5058776;28;20315;-59
2023/07/24 09:45:49;;;;;;;13.47;10.43;;;;;;;20.03;100.00;99856.16;5060645;28;20274;-58
2023/07/24 09:48:24;;;;;;;14.80;10.47;;;;;;;20.12;100.00;99860.06;5069060;28;20275;-61
2023/07/24 09:50:59;;;;;;;14.17;10.50;;;;;;;20.09;100.00;99878.78;5057955;28;20278;-58
2023/07/24 09:53:38;;;;;;;13.00;10.17;;;;;;;20.09;100.00;99870.81;5070986;28;20289;-61
2023/07/24 09:56:11;;;;;;;11.90;9.68;;;;;;;20.11;100.00;99876.91;5059545;28;20324;-61
2023/07/24 09:58:42;;;;;;;12.23;9.80;;;;;;;19.92;100.00;99847.16;5066743;28;20085;-62
2023/07/24 10:01:14;;;;;;;13.63;10.37;;;;;;;20.13;100.00;99877.66;5071523;28;20372;-60
2023/07/24 10:03:50;;;;;;;15.03;11.07;;;;;;;20.14;100.00;99874.03;5057890;28;20745;-61
2023/07/24 10:06:23;;;;;;;21.10;13.03;;;;;;;20.14;100.00;99867.91;5070147;28;20752;-58
2023/07/24 10:09:00;;;;;;;20.90;14.00;;;;;;;20.10;100.00;99867.25;5059670;28;20294;-61
2023/07/24 10:11:32;;;;;;;22.27;13.70;;;;;;;20.05;100.00;99864.03;5069303;28;20270;-61
2023/07/24 10:14:05;;;;;;;18.53;13.00;;;;;;;20.04;100.00;99873.78;5059873;28;20307;-61
2023/07/24 10:16:37;;;;;;;18.00;12.97;;;;;;;20.02;100.00;99869.53;5071020;28;20289;-58
2023/07/24 10:19:17;;;;;;;13.97;11.63;;;;;;;20.03;100.00;99863.28;5060420;28;20305;-62
2023/07/24 10:21:49;;;;;;;19.05;13.68;;;;;;;19.99;100.00;99862.63;5058990;28;20278;-61
2023/07/24 10:24:32;;;;;;;15.33;11.80;;;;;;;20.01;100.00;99870.47;5070932;28;20137;-60
2023/07/24 10:27:11;;;;;;;15.10;11.80;;;;;;;20.00;100.00;99876.72;5060003;28;20372;-61
2023/07/24 10:29:46;;;;;;;13.83;11.87;;;;;;;20.02;100.00;99869.53;5062455;28;20279;-62
2023/07/24 10:32:21;;;;;;;12.73;11.33;;;;;;;20.01;100.00;99867.81;5069248;28;20879;-61
2023/07/24 10:35:01;;;;;;;14.13;10.77;;;;;;;19.95;100.00;99862.91;5059216;28;20278;-60
2023/07/24 10:37:38;;;;;;;12.50;11.17;;;;;;;19.95;100.00;99873.50;5069861;28;20397;-59
2023/07/24 10:40:22;;;;;;;12.80;11.17;;;;;;;19.95;100.00;99874.34;5058474;28;20658;-62
2023/07/24 10:43:03;;;;;;;15.10;11.77;;;;;;;19.94;100.00;99869.13;5060935;28;20294;-62
2023/07/24 10:45:47;;;;;;;16.13;11.43;;;;;;;19.76;100.00;99841.94;5069401;28;20361;-63
2023/07/24 10:48:22;;;;;;;14.27;11.90;;;;;;;19.83;100.00;99854.72;5061208;28;20337;-63
2023/07/24 10:50:54;;;;;;;14.07;12.53;;;;;;;19.69;100.00;99840.63;5062555;28;20699;-64
2023/07/24 10:53:28;;;;;;;12.97;11.63;;;;;;;19.83;100.00;99873.28;5074721;28;20270;-62
2023/07/24 10:56:06;;;;;;;16.13;12.27;;;;;;;19.81;100.00;99872.53;5062161;28;20271;-63
2023/07/24 10:58:39;;;;;;;17.13;12.50;;;;;;;19.83;100.00;99881.25;5072761;28;20281;-64
2023/07/24 11:01:12;;;;;;;17.37;12.90;;;;;;;19.77;100.00;99873.69;5062746;28;20300;-62
2023/07/24 11:03:44;;;;;;;16.07;12.20;;;;;;;19.79;100.00;99882.41;5064972;28;20396;-62
2023/07/24 11:06:17;;;;;;;15.93;12.37;;;;;;;19.74;100.00;99871.19;5073770;28;20305;-64
2023/07/24 11:08:56;;;;;;;25.50;14.57;;;;;;;19.79;100.00;99869.16;5062508;28;20284;-64
2023/07/24 11:11:33;;;;;;;20.02;13.40;;;;;;;19.80;100.00;99865.53;5072932;28;20373;-64
2023/07/24 11:14:15;;;;;;;29.37;14.03;;;;;;;19.61;100.00;99827.81;5061255;28;20060;-63
2023/07/24 11:16:51;;;;;;;24.57;15.53;;;;;;;19.78;100.00;99872.72;5063193;28;20320;-63
2023/07/24 11:19:27;;;;;;;20.07;14.23;;;;;;;19.76;100.00;99874.59;5073032;28;20290;-64
2023/07/24 11:22:03;;;;;;;19.70;13.73;;;;;;;19.76;100.00;99874.59;5061939;28;20279;-64
2023/07/24 11:24:36;;;;;;;19.80;14.33;;;;;;;19.82;100.00;99874.25;5072974;28;20282;-63
2023/07/24 11:27:16;;;;;;;19.37;14.10;;;;;;;19.83;100.00;99875.94;5061976;28;20934;-60
2023/07/24 11:29:51;;;;;;;20.67;14.17;;;;;;;19.86;100.00;99879.38;5063750;28;20278;-64
2023/07/24 11:32:23;;;;;;;16.10;12.63;;;;;;;19.89;100.00;99879.16;5072991;28;20302;-64
2023/07/24 11:34:59;;;;;;;17.30;13.77;;;;;;;19.86;100.00;99874.06;5061839;28;20370;-61
2023/07/24 11:37:33;;;;;;;16.00;11.90;;;;;;;19.83;100.00;99873.28;5072883;28;20373;-61
2023/07/24 11:40:09;;;;;;;15.67;12.47;;;;;;;19.80;100.00;99870.00;5063324;28;20280;-62
2023/07/24 11:42:46;;;;;;;16.47;13.10;;;;;;;19.80;100.00;99873.50;5072717;28;20278;-60
2023/07/24 11:45:17;;;;;;;18.97;13.53;;;;;;;19.85;100.00;99877.66;5061210;28;20297;-60
2023/07/24 11:47:53;;;;;;;18.07;12.73;;;;;;;19.83;100.00;99875.94;5061399;28;20807;-63
2023/07/24 11:50:26;;;;;;;17.13;12.83;;;;;;;19.81;100.00;99861.94;5072215;28;20310;-60
2023/07/24 11:52:57;;;;;;;15.77;12.53;;;;;;;19.84;100.00;99866.19;5061745;28;20290;-63
2023/07/24 11:55:34;;;;;;;17.53;12.60;;;;;;;19.77;100.00;99855.13;5072212;28;20670;-63
2023/07/24 11:58:08;;;;;;;14.87;11.73;;;;;;;19.86;100.00;99879.38;5060944;28;20261;-61
2023/07/24 12:00:40;;;;;;;17.80;13.03;;;;;;;19.85;100.00;99881.16;5070765;28;20293;-62
2023/07/24 12:03:13;;;;;;;17.40;13.13;;;;;;;19.82;100.00;99882.22;5062422;28;20577;-62
2023/07/24 12:05:47;;;;;;;20.30;13.27;;;;;;;19.82;100.00;99892.81;5062575;28;20274;-63
2023/07/24 12:08:23;;;;;;;15.60;12.10;;;;;;;19.82;100.00;99889.31;5071617;28;20365;-62
2023/07/24 12:10:56;;;;;;;16.70;13.50;;;;;;;19.80;100.00;99870.84;5061228;28;20313;-64
2023/07/24 12:13:31;;;;;;;18.93;12.60;;;;;;;19.82;100.00;99868.94;5072066;28;20278;-62
2023/07/24 12:16:02;;;;;;;14.70;12.07;;;;;;;19.81;100.00;99872.53;5061355;28;20373;-63
2023/07/24 12:18:34;;;;;;;17.97;12.50;;;;;;;19.81;100.00;99876.97;5071591;28;20289;-62
2023/07/24 12:21:06;;;;;;;19.93;12.43;;;;;;;19.81;100.00;99884.94;5060248;28;20281;-62
2023/07/24 12:23:38;;;;;;;17.17;12.27;;;;;;;19.77;100.00;99876.34;5071912;28;20335;-62
2023/07/24 12:26:10;;;;;;;13.83;11.63;;;;;;;19.78;100.00;99878.03;5060639;28;20786;-60
2023/07/24 12:28:47;;;;;;;19.07;13.17;;;;;;;19.78;100.00;99872.72;5066861;28;20364;-61
2023/07/24 12:31:21;;;;;;;19.23;12.10;;;;;;;19.76;100.00;99874.59;5070871;28;20729;-60
2023/07/24 12:33:53;;;;;;;16.07;12.07;;;;;;;19.77;100.00;99865.72;5060451;28;20285;-63
2023/07/24 12:36:25;;;;;;;19.87;12.67;;;;;;;19.79;100.00;99863.84;5071296;28;20290;-62
2023/07/24 12:38:57;;;;;;;14.17;11.30;;;;;;;19.78;100.00;99861.28;5059994;28;20813;-63
2023/07/24 12:41:30;;;;;;;24.37;12.80;;;;;;;19.79;100.00;99866.50;5070830;28;20278;-64
2023/07/24 12:44:04;;;;;;;15.93;11.50;;;;;;;19.81;100.00;99869.88;5061593;28;20375;-61
2023/07/24 12:46:36;;;;;;;15.50;11.30;;;;;;;19.78;100.00;99864.78;5072382;28;20286;-63
2023/07/24 12:49:09;;;;;;;18.07;11.73;;;;;;;19.78;100.00;99864.78;5059225;28;20301;-62
2023/07/24 12:51:41;;;;;;;17.00;13.07;;;;;;;19.77;100.00;99860.44;5070011;28;20308;-62
2023/07/24 12:54:13;;;;;;;20.77;12.80;;;;;;;19.73;100.00;99848.28;5060359;28;20290;-62
2023/07/24 12:57:06;;;;;;;17.70;12.33;;;;;;;19.71;100.00;99866.09;5059207;28;20301;-63
2023/07/24 12:59:41;;;;;;;25.93;13.50;;;;;;;19.69;100.00;99854.72;5071330;28;20282;-64
2023/07/24 13:02:13;;;;;;;22.30;14.83;;;;;;;19.67;100.00;99856.63;5059690;28;20286;-63
2023/07/24 13:04:45;;;;;;;20.13;13.23;;;;;;;19.69;100.00;99857.38;5060775;28;20301;-60
2023/07/24 13:07:17;;;;;;;24.10;13.97;;;;;;;19.70;100.00;99859.09;5069974;28;20294;-59
2023/07/24 13:09:49;;;;;;;24.00;12.50;;;;;;;19.72;100.00;99862.50;5061611;28;20301;-63
2023/07/24 13:12:21;;;;;;;25.43;13.47;;;;;;;19.75;100.00;99862.31;5072083;28;20405;-62
2023/07/24 13:14:55;;;;;;;22.77;13.97;;;;;;;19.74;100.00;99865.88;5060911;28;20600;-62
2023/07/24 13:17:27;;;;;;;19.70;13.57;;;;;;;19.72;100.00;99862.50;5070479;28;20270;-62
2023/07/24 13:19:58;;;;;;;20.23;14.83;;;;;;;19.72;100.00;99862.50;5061807;28;20282;-63
2023/07/24 13:22:31;;;;;;;30.67;14.97;;;;;;;19.72;100.00;99865.16;5071230;28;20293;-63
2023/07/24 13:25:04;;;;;;;20.90;13.13;;;;;;;19.71;100.00;99863.44;5059880;28;20296;-63
2023/07/24 13:27:36;;;;;;;18.07;13.37;;;;;;;19.71;100.00;99860.78;5069722;28;20287;-62
2023/07/24 13:30:12;;;;;;;14.77;12.40;;;;;;;19.70;100.00;99859.09;5059843;28;20289;-62
2023/07/24 13:32:45;;;;;;;20.90;13.27;;;;;;;19.73;100.00;99858.91;5059658;28;20281;-59
2023/07/24 13:35:17;;;;;;;20.40;12.73;;;;;;;19.73;100.00;99858.91;5070847;28;20280;-64
2023/07/24 13:37:50;;;;;;;16.97;12.13;;;;;;;19.74;100.00;99865.88;5061212;28;20318;-63
2023/07/24 13:40:23;;;;;;;22.63;13.03;;;;;;;19.74;100.00;99871.19;5069065;28;20274;-63
2023/07/24 13:42:54;;;;;;;27.17;12.77;;;;;;;19.75;100.00;99866.78;5059583;28;20325;-60
2023/07/24 13:45:28;;;;;;;20.27;12.57;;;;;;;19.76;100.00;99864.00;5069770;28;20302;-62
2023/07/24 13:48:00;;;;;;;28.97;12.77;;;;;;;19.72;100.00;99862.50;5058273;28;20289;-61
2023/07/24 13:50:32;;;;;;;22.50;12.37;;;;;;;19.73;100.00;99864.19;5068832;28;20262;-64
2023/07/24 13:53:04;;;;;;;21.70;11.87;;;;;;;19.73;100.00;99856.25;5058994;28;20289;-59
2023/07/24 13:55:36;;;;;;;26.93;12.93;;;;;;;19.74;100.00;99857.09;5071010;28;20286;-62
2023/07/24 13:58:08;;;;;;;39.63;13.77;;;;;;;19.72;100.00;99851.03;5059805;28;20286;-63
2023/07/24 14:00:43;;;;;;;21.93;12.03;;;;;;;19.71;100.00;99847.53;5067467;28;20290;-63
2023/07/24 14:03:16;;;;;;;15.60;11.47;;;;;;;19.70;100.00;99837.88;5058085;28;20281;-63
2023/07/24 14:05:48;;;;;;;18.27;12.27;;;;;;;19.69;100.00;99845.91;5059472;28;20709;-61
2023/07/24 14:08:21;;;;;;;20.33;12.30;;;;;;;19.71;100.00;99850.19;5068798;28;20266;-61
2023/07/24 14:10:53;;;;;;;21.17;13.17;;;;;;;19.58;100.00;99828.84;5060478;28;20270;-61
2023/07/24 14:13:25;;;;;;;30.23;13.27;;;;;;;19.53;100.00;99824.78;5069573;28;20597;-61
2023/07/24 14:15:59;;;;;;;24.57;12.60;;;;;;;19.74;100.00;99860.59;5060512;28;20812;-62
2023/07/24 14:18:30;;;;;;;35.57;13.33;;;;;;;19.73;100.00;99858.91;5069144;28;20281;-63
2023/07/24 14:21:03;;;;;;;37.37;13.03;;;;;;;19.72;100.00;99857.22;5059047;28;20284;-61
2023/07/24 14:23:34;;;;;;;30.40;12.07;;;;;;;19.72;100.00;99867.81;5072457;28;20281;-61
2023/07/24 14:26:09;;;;;;;18.57;11.53;;;;;;;19.70;100.00;99861.75;5064167;28;20751;-60
2023/07/24 14:28:41;;;;;;;17.03;10.10;;;;;;;19.67;100.00;99858.38;5075859;28;20295;-61
2023/07/24 14:31:14;;;;;;;22.17;11.17;;;;;;;19.67;100.00;99853.97;5062637;28;20366;-64
2023/07/24 14:33:46;;;;;;;28.47;10.57;;;;;;;19.65;100.00;99845.22;5063396;28;20288;-63
2023/07/24 14:36:18;;;;;;;34.23;10.83;;;;;;;19.63;100.00;99852.41;5074937;28;20443;-63
2023/07/24 14:38:51;;;;;;;39.60;11.03;;;;;;;19.63;100.00;99847.13;5063882;28;20365;-61
2023/07/24 14:41:25;;;;;;;29.73;11.20;;;;;;;19.63;100.00;99846.28;5073993;28;20597;-62
2023/07/24 14:43:57;;;;;;;17.83;11.07;;;;;;;19.61;100.00;99854.31;5062652;28;20274;-62